Time,TemperatureF,DewpointF,PressureIn,WindDirection,WindDirectionDegrees,WindSpeedMPH,WindSpeedGustMPH,Humidity,HourlyPrecipIn,Conditions,Clouds,dailyrainin,SoftwareType,DateUTC
2013-04-01 00:14:00,51.1,50.6,29.68,South,180,0.0,-999.0,98,-99.99,,,0.00,Acu-Link.com,2013-04-01 04:14:00,
2013-04-01 00:30:00,50.9,50.4,29.68,SSE,157,0.0,-999.0,98,-99.99,,,0.00,Acu-Link.com,2013-04-01 04:30:00,
2013-04-01 00:45:00,50.0,49.5,29.68,NW,315,0.0,-999.0,98,-99.99,,,0.00,Acu-Link.com,2013-04-01 04:45:00,
2013-04-01 01:00:00,49.6,49.1,29.68,East,90,0.0,-999.0,98,-99.99,,,0.00,Acu-Link.com,2013-04-01 05:00:00,
2013-04-01 01:15:00,48.6,48.1,29.69,SSE,157,0.0,-999.0,98,-99.99,,,0.00,Acu-Link.com,2013-04-01 05:15:00,
2013-04-01 01:30:00,47.7,47.2,29.68,WNW,292,0.0,-999.0,98,-99.99,,,0.00,Acu-Link.com,2013-04-01 05:30:00,
2013-04-01 02:01:00,46.4,45.9,29.68,NE,45,0.0,-999.0,98,-99.99,,,0.00,Acu-Link.com,2013-04-01 06:01:00,
2013-04-01 02:16:00,45.7,45.2,29.67,NE,45,0.0,-999.0,98,-99.99,,,0.00,Acu-Link.com,2013-04-01 06:16:00,
2013-04-01 02:32:00,45.3,44.8,29.67,ENE,67,0.0,-999.0,98,-99.99,,,0.00,Acu-Link.com,2013-04-01 06:32:00,
2013-04-01 03:02:00,43.9,43.4,29.68,ENE,67,0.0,-999.0,98,-99.99,,,0.00,Acu-Link.com,2013-04-01 07:02:00,
2013-04-01 03:33:00,43.2,42.7,29.67,NE,45,0.0,-999.0,98,-99.99,,,0.00,Acu-Link.com,2013-04-01 07:33:00,
2013-04-01 03:48:00,42.8,42.3,29.67,NE,45,0.0,-999.0,98,-99.99,,,0.00,Acu-Link.com,2013-04-01 07:48:00,
2013-04-01 04:03:00,42.3,41.8,29.66,ENE,67,0.0,-999.0,98,-99.99,,,0.00,Acu-Link.com,2013-04-01 08:03:00,
2013-04-01 04:34:00,41.9,41.4,29.67,ENE,67,0.0,-999.0,98,-99.99,,,0.00,Acu-Link.com,2013-04-01 08:34:00,
2013-04-01 04:49:00,41.7,41.2,29.67,ENE,67,0.0,-999.0,98,-99.99,,,0.00,Acu-Link.com,2013-04-01 08:49:00,
2013-04-01 05:04:00,41.5,41.0,29.67,ENE,67,0.0,-999.0,98,-99.99,,,0.00,Acu-Link.com,2013-04-01 09:04:00,
2013-04-01 05:19:00,41.5,41.0,29.67,ENE,67,0.0,-999.0,98,-99.99,,,0.00,Acu-Link.com,2013-04-01 09:19:00,
2013-04-01 05:34:00,41.9,41.4,29.67,ENE,67,0.0,-999.0,98,-99.99,,,0.00,Acu-Link.com,2013-04-01 09:34:00,
2013-04-01 05:50:00,42.1,41.6,29.68,ENE,67,0.0,-999.0,98,-99.99,,,0.00,Acu-Link.com,2013-04-01 09:50:00,
2013-04-01 06:05:00,42.8,42.3,29.69,ENE,67,0.0,-999.0,98,-99.99,,,0.00,Acu-Link.com,2013-04-01 10:05:00,
2013-04-01 06:20:00,43.0,42.5,29.70,ENE,67,0.0,-999.0,98,-99.99,,,0.00,Acu-Link.com,2013-04-01 10:20:00,
2013-04-01 06:36:00,42.8,42.3,29.70,West,270,0.0,-999.0,98,-99.99,,,0.00,Acu-Link.com,2013-04-01 10:36:00,
2013-04-01 07:06:00,43.0,42.5,29.71,NNE,22,2.2,-999.0,98,-99.99,,,0.01,Acu-Link.com,2013-04-01 11:06:00,
2013-04-01 07:22:00,42.8,42.3,29.71,South,180,0.0,-999.0,98,-99.99,,,0.01,Acu-Link.com,2013-04-01 11:22:00,
2013-04-01 07:37:00,42.4,41.9,29.71,South,180,0.0,-999.0,98,-99.99,,,0.01,Acu-Link.com,2013-04-01 11:37:00,
2013-04-01 08:07:00,42.8,42.3,29.72,WNW,292,1.7,-999.0,98,-99.99,,,0.01,Acu-Link.com,2013-04-01 12:07:00,
2013-04-01 08:38:00,44.4,43.9,29.74,WSW,247,2.7,-999.0,98,-99.99,,,0.01,Acu-Link.com,2013-04-01 12:38:00,
2013-04-01 08:53:00,44.8,44.3,29.76,SW,225,2.7,-999.0,98,-99.99,,,0.01,Acu-Link.com,2013-04-01 12:53:00,
2013-04-01 09:09:00,45.5,45.0,29.76,SSW,202,1.7,-999.0,98,-99.99,,,0.01,Acu-Link.com,2013-04-01 13:09:00,
2013-04-01 09:24:00,46.8,46.3,29.76,South,180,1.7,-999.0,98,-99.99,,,0.01,Acu-Link.com,2013-04-01 13:24:00,
2013-04-01 09:39:00,48.2,47.7,29.77,SW,225,1.7,-999.0,98,-99.99,,,0.01,Acu-Link.com,2013-04-01 13:39:00,
2013-04-01 09:54:00,48.6,48.1,29.77,West,270,1.7,-999.0,98,-99.99,,,0.01,Acu-Link.com,2013-04-01 13:54:00,
2013-04-01 10:10:00,49.8,49.3,29.77,SSW,202,2.2,-999.0,98,-99.99,,,0.01,Acu-Link.com,2013-04-01 14:10:00,
2013-04-01 10:25:00,48.4,47.9,29.77,SSE,157,6.8,-999.0,98,-99.99,,,0.01,Acu-Link.com,2013-04-01 14:25:00,
2013-04-01 10:40:00,50.9,50.4,29.78,SSW,202,2.7,-999.0,98,-99.99,,,0.01,Acu-Link.com,2013-04-01 14:40:00,
2013-04-01 10:55:00,53.4,49.6,29.78,SSE,157,4.2,-999.0,87,-99.99,,,0.01,Acu-Link.com,2013-04-01 14:55:00,
2013-04-01 11:11:00,55.6,51.5,29.78,SSE,157,2.2,-999.0,86,-99.99,,,0.01,Acu-Link.com,2013-04-01 15:11:00,
2013-04-01 11:41:00,56.7,51.6,29.78,SW,225,3.2,-999.0,83,-99.99,,,0.01,Acu-Link.com,2013-04-01 15:41:00,
2013-04-01 11:57:00,60.1,52.1,29.78,South,180,4.7,-999.0,75,-99.99,,,0.01,Acu-Link.com,2013-04-01 15:57:00,
2013-04-01 12:12:00,63.0,52.7,29.78,NW,315,1.7,-999.0,69,-99.99,,,0.01,Acu-Link.com,2013-04-01 16:12:00,
2013-04-01 12:27:00,63.1,52.8,29.78,South,180,2.7,-999.0,69,-99.99,,,0.01,Acu-Link.com,2013-04-01 16:27:00,
2013-04-01 12:42:00,66.9,53.0,29.78,SW,225,4.2,-999.0,61,-99.99,,,0.01,Acu-Link.com,2013-04-01 16:42:00,
2013-04-01 12:57:00,66.6,51.8,29.78,West,270,3.7,-999.0,59,-99.99,,,0.01,Acu-Link.com,2013-04-01 16:57:00,
2013-04-01 13:13:00,66.2,51.9,29.77,SSE,157,2.7,-999.0,60,-99.99,,,0.01,Acu-Link.com,2013-04-01 17:13:00,
2013-04-01 13:28:00,67.1,51.4,29.78,SW,225,3.7,-999.0,57,-99.99,,,0.01,Acu-Link.com,2013-04-01 17:28:00,
2013-04-01 13:43:00,63.9,50.2,29.77,SW,225,5.3,-999.0,61,-99.99,,,0.01,Acu-Link.com,2013-04-01 17:43:00,
2013-04-01 13:58:00,67.1,49.4,29.76,SW,225,2.7,-999.0,53,-99.99,,,0.01,Acu-Link.com,2013-04-01 17:58:00,
2013-04-01 14:13:00,67.6,47.2,29.75,West,270,6.8,-999.0,48,-99.99,,,0.01,Acu-Link.com,2013-04-01 18:13:00,
2013-04-01 14:28:00,69.6,49.0,29.76,West,270,8.9,-999.0,48,-99.99,,,0.01,Acu-Link.com,2013-04-01 18:28:00,
2013-04-01 14:44:00,67.5,47.1,29.75,NNW,337,5.8,-999.0,48,-99.99,,,0.01,Acu-Link.com,2013-04-01 18:44:00,
2013-04-01 14:59:00,69.3,47.6,29.76,WSW,247,7.8,-999.0,46,-99.99,,,0.01,Acu-Link.com,2013-04-01 18:59:00,
2013-04-01 15:14:00,68.2,47.8,29.74,South,180,3.7,-999.0,48,-99.99,,,0.01,Acu-Link.com,2013-04-01 19:14:00,
2013-04-01 15:29:00,68.4,47.9,29.75,SW,225,4.7,-999.0,48,-99.99,,,0.01,Acu-Link.com,2013-04-01 19:29:00,
2013-04-01 15:44:00,68.5,45.7,29.74,ESE,112,2.7,-999.0,44,-99.99,,,0.01,Acu-Link.com,2013-04-01 19:44:00,
2013-04-01 16:00:00,69.6,45.5,29.74,ESE,112,4.2,-999.0,42,-99.99,,,0.01,Acu-Link.com,2013-04-01 20:00:00,
2013-04-01 16:15:00,69.6,42.2,29.74,South,180,5.8,-999.0,37,-99.99,,,0.01,Acu-Link.com,2013-04-01 20:15:00,
2013-04-01 16:30:00,71.4,42.3,29.74,West,270,2.7,-999.0,35,-99.99,,,0.01,Acu-Link.com,2013-04-01 20:30:00,
2013-04-01 16:45:00,71.1,39.7,29.74,West,270,3.7,-999.0,32,-99.99,,,0.01,Acu-Link.com,2013-04-01 20:45:00,
2013-04-01 17:00:00,69.3,39.7,29.73,SW,225,7.8,-999.0,34,-99.99,,,0.01,Acu-Link.com,2013-04-01 21:00:00,
2013-04-01 17:15:00,68.5,39.0,29.73,West,270,2.7,-999.0,34,-99.99,,,0.01,Acu-Link.com,2013-04-01 21:15:00,
2013-04-01 17:30:00,69.1,38.8,29.74,West,270,3.7,-999.0,33,-99.99,,,0.01,Acu-Link.com,2013-04-01 21:30:00,
2013-04-01 17:46:00,68.0,37.0,29.74,West,270,5.3,-999.0,32,-99.99,,,0.01,Acu-Link.com,2013-04-01 21:46:00,
2013-04-01 18:16:00,64.0,37.9,29.74,West,270,6.3,-999.0,38,-99.99,,,0.01,Acu-Link.com,2013-04-01 22:16:00,
2013-04-01 18:32:00,64.2,38.1,29.74,SSW,202,4.7,-999.0,38,-99.99,,,0.01,Acu-Link.com,2013-04-01 22:32:00,
2013-04-01 18:47:00,64.8,37.2,29.74,NNW,337,4.2,-999.0,36,-99.99,,,0.01,Acu-Link.com,2013-04-01 22:47:00,
2013-04-01 19:02:00,65.5,37.8,29.74,NNW,337,4.2,-999.0,36,-99.99,,,0.01,Acu-Link.com,2013-04-01 23:02:00,
2013-04-01 19:18:00,63.5,36.8,29.74,NNW,337,3.7,-999.0,37,-99.99,,,0.01,Acu-Link.com,2013-04-01 23:18:00,
2013-04-01 19:33:00,60.8,36.3,29.76,NW,315,4.2,-999.0,40,-99.99,,,0.01,Acu-Link.com,2013-04-01 23:33:00,
2013-04-01 19:48:00,59.9,36.8,29.77,NW,315,2.2,-999.0,42,-99.99,,,0.01,Acu-Link.com,2013-04-01 23:48:00,
2013-04-01 20:03:00,58.6,35.6,29.77,West,270,5.8,-999.0,42,-99.99,,,0.01,Acu-Link.com,2013-04-02 00:03:00,
2013-04-01 20:19:00,57.7,35.9,29.77,WNW,292,4.2,-999.0,44,-99.99,,,0.01,Acu-Link.com,2013-04-02 00:19:00,
2013-04-01 20:34:00,56.8,36.2,29.78,NW,315,1.7,-999.0,46,-99.99,,,0.01,Acu-Link.com,2013-04-02 00:34:00,
2013-04-01 20:49:00,55.6,35.7,29.78,WNW,292,1.7,-999.0,47,-99.99,,,0.01,Acu-Link.com,2013-04-02 00:49:00,
2013-04-01 21:05:00,54.3,36.6,29.80,NW,315,1.7,-999.0,51,-99.99,,,0.01,Acu-Link.com,2013-04-02 01:05:00,
2013-04-01 21:20:00,54.3,35.6,29.80,West,270,2.2,-999.0,49,-99.99,,,0.01,Acu-Link.com,2013-04-02 01:20:00,
2013-04-01 21:35:00,53.6,35.4,29.81,SSW,202,2.2,-999.0,50,-99.99,,,0.01,Acu-Link.com,2013-04-02 01:35:00,
2013-04-01 21:50:00,52.3,35.7,29.83,WNW,292,1.7,-999.0,53,-99.99,,,0.01,Acu-Link.com,2013-04-02 01:50:00,
2013-04-01 22:21:00,51.3,35.2,29.84,West,270,2.7,-999.0,54,-99.99,,,0.01,Acu-Link.com,2013-04-02 02:21:00,
2013-04-01 22:36:00,50.7,35.1,29.85,West,270,1.7,-999.0,55,-99.99,,,0.01,Acu-Link.com,2013-04-02 02:36:00,
2013-04-01 22:52:00,50.0,34.9,29.84,West,270,1.1,-999.0,56,-99.99,,,0.01,Acu-Link.com,2013-04-02 02:52:00,
2013-04-01 23:07:00,49.5,34.9,29.84,West,270,1.7,-999.0,57,-99.99,,,0.01,Acu-Link.com,2013-04-02 03:07:00,
2013-04-01 23:22:00,48.6,34.5,29.83,WNW,292,0.0,-999.0,58,-99.99,,,0.01,Acu-Link.com,2013-04-02 03:22:00,
2013-04-01 23:38:00,47.3,34.9,29.85,WNW,292,0.0,-999.0,62,-99.99,,,0.01,Acu-Link.com,2013-04-02 03:38:00,
2013-04-01 23:53:00,46.6,35.1,29.84,West,270,1.7,-999.0,64,-99.99,,,0.01,Acu-Link.com,2013-04-02 03:53:00,